Time;durP1;ratioP1;P1;durP2;ratioP2;P2;SDS_P1;SDS_P2;PMS_P1;PMS_P2;Temp;Humidity;BMP_temperature;BMP_pressure;BME280_temperature;BME280_humidity;BME280_pressure;Samples;Min_cycle;Max_cycle;Signal;HPM_P1;HPM_P2
2022/07/03 00:01:24;;;;;;;5.00;2.42;;;19.80;96.40;;;;;;5012052;28;20445;-58
2022/07/03 00:03:49;;;;;;;13.55;3.20;;;19.80;96.80;;;;;;5011937;28;20026;-52
2022/07/03 00:06:15;;;;;;;4.20;2.38;;;19.80;97.00;;;;;;5011645;28;20030;-53
2022/07/03 00:08:41;;;;;;;4.70;2.97;;;19.80;97.10;;;;;;5010048;28;20105;-57
2022/07/03 00:11:07;;;;;;;4.20;3.00;;;19.80;97.00;;;;;;5011940;28;20104;-55
2022/07/03 00:13:32;;;;;;;4.22;2.50;;;19.80;97.00;;;;;;5011810;28;20033;-53
2022/07/03 00:15:58;;;;;;;2.72;2.50;;;19.70;97.40;;;;;;5011504;28;20518;-52
2022/07/03 00:18:24;;;;;;;2.95;2.40;;;19.60;97.80;;;;;;5011042;28;20105;-51
2022/07/03 00:20:59;;;;;;;4.00;2.60;;;19.60;98.30;;;;;;5011710;28;20021;-56
2022/07/03 00:23:26;;;;;;;3.38;3.05;;;19.60;98.30;;;;;;5011700;28;20544;-53
2022/07/03 00:25:51;;;;;;;4.45;3.10;;;19.60;98.30;;;;;;5011732;28;20317;-52
2022/07/03 00:28:19;;;;;;;4.63;3.33;;;19.60;98.30;;;;;;5011027;28;20026;-54
2022/07/03 00:30:48;;;;;;;6.15;3.60;;;19.70;98.50;;;;;;5011267;28;20045;-54
2022/07/03 00:33:14;;;;;;;7.95;4.07;;;19.60;98.50;;;;;;5011582;28;20034;-53
2022/07/03 00:35:42;;;;;;;6.70;3.60;;;19.70;98.80;;;;;;5011625;28;20101;-56
2022/07/03 00:38:07;;;;;;;6.93;3.08;;;19.60;98.70;;;;;;5010905;28;20030;-54
2022/07/03 00:40:33;;;;;;;6.25;2.47;;;19.70;99.00;;;;;;5011598;28;20508;-54
2022/07/03 00:43:00;;;;;;;17.63;3.30;;;19.60;99.00;;;;;;5011238;28;20044;-50
2022/07/03 00:45:26;;;;;;;3.03;2.58;;;19.60;99.10;;;;;;5011541;28;20030;-54
2022/07/03 00:47:54;;;;;;;4.68;3.17;;;19.60;99.10;;;;;;5010688;28;20026;-51
2022/07/03 00:50:25;;;;;;;4.60;3.40;;;19.50;99.40;;;;;;5011443;28;20026;-57
2022/07/03 00:52:54;;;;;;;3.83;3.28;;;19.50;99.80;;;;;;5011641;28;20030;-57
2022/07/03 00:55:22;;;;;;;4.13;3.53;;;19.50;99.90;;;;;;5011437;28;20017;-54
2022/07/03 00:57:48;;;;;;;5.75;3.30;;;19.40;99.90;;;;;;5009057;28;20041;-56
2022/07/03 01:00:16;;;;;;;4.28;3.13;;;19.30;99.90;;;;;;5011445;28;20149;-51
2022/07/03 01:02:50;;;;;;;7.85;3.80;;;19.20;99.90;;;;;;5011326;28;20025;-55
2022/07/03 01:05:30;;;;;;;4.07;3.60;;;19.10;99.90;;;;;;5011399;28;20034;-51
2022/07/03 01:08:07;;;;;;;4.22;3.35;;;19.00;99.90;;;;;;5043205;22;20037;-55
2022/07/03 01:10:49;;;;;;;6.18;3.20;;;18.80;99.90;;;;;;5029440;28;20056;-52
2022/07/03 01:13:37;;;;;;;4.82;3.35;;;18.80;99.90;;;;;;5031004;28;20025;-56
2022/07/03 01:16:33;;;;;;;4.13;3.05;;;18.70;99.90;;;;;;5031104;28;20033;-49
2022/07/03 01:19:09;;;;;;;;;;;18.70;99.90;;;;;;5026606;28;20033;-49
2022/07/03 01:21:39;;;;;;;;;;;18.60;99.90;;;;;;5016779;28;19920;-48
2022/07/03 01:24:23;;;;;;;3.45;2.90;;;18.50;99.90;;;;;;5034779;28;19967;-52
2022/07/03 01:26:53;;;;;;;5.45;3.42;;;18.50;99.90;;;;;;5034510;28;20371;-49
2022/07/03 01:29:25;;;;;;;6.18;3.05;;;18.40;99.90;;;;;;5035176;28;20024;-53
2022/07/03 01:31:53;;;;;;;5.75;3.63;;;18.40;99.90;;;;;;5034625;28;20029;-52
2022/07/03 01:34:19;;;;;;;7.47;3.05;;;18.40;99.90;;;;;;5034444;28;20025;-56
2022/07/03 01:36:47;;;;;;;8.75;3.05;;;18.40;99.90;;;;;;5033588;28;20026;-49
2022/07/03 01:39:16;;;;;;;5.53;3.97;;;18.50;99.90;;;;;;5034253;28;20093;-52
2022/07/03 01:41:44;;;;;;;4.60;2.85;;;18.40;99.90;;;;;;5034668;28;20033;-50
2022/07/03 01:44:13;;;;;;;5.53;3.15;;;18.30;99.90;;;;;;5034334;28;20030;-54
2022/07/03 01:46:42;;;;;;;3.65;2.67;;;18.30;99.90;;;;;;5034156;28;20029;-49
2022/07/03 01:49:10;;;;;;;5.43;3.20;;;18.30;99.90;;;;;;5033362;28;20033;-53
2022/07/03 01:51:38;;;;;;;3.45;2.65;;;18.20;99.90;;;;;;5016171;28;20436;-57
2022/07/03 01:54:06;;;;;;;5.38;2.88;;;18.20;99.90;;;;;;5034184;28;20064;-55
2022/07/03 01:56:33;;;;;;;3.70;2.92;;;18.10;99.90;;;;;;5034381;28;20017;-55
2022/07/03 01:58:59;;;;;;;3.55;2.55;;;18.10;99.90;;;;;;5032046;28;20048;-53
2022/07/03 02:01:33;;;;;;;4.13;2.85;;;18.20;99.90;;;;;;5033897;28;20472;-51
2022/07/03 02:04:33;;;;;;;7.45;3.65;;;18.10;99.90;;;;;;5015823;28;20405;-48
2022/07/03 02:07:12;;;;;;;12.68;3.05;;;18.10;99.90;;;;;;5006704;28;20038;-54
2022/07/03 02:09:48;;;;;;;4.20;2.35;;;18.10;99.90;;;;;;5016009;28;20026;-54
2022/07/03 02:12:17;;;;;;;6.22;3.00;;;18.10;99.90;;;;;;5033892;28;20116;-51
2022/07/03 02:15:02;;;;;;;4.85;3.15;;;18.10;99.90;;;;;;5033127;28;20104;-53
2022/07/03 02:17:34;;;;;;;9.85;2.95;;;18.10;99.90;;;;;;5032913;28;20101;-56
2022/07/03 02:20:07;;;;;;;5.20;3.45;;;18.10;99.90;;;;;;5033495;28;20486;-47
2022/07/03 02:22:36;;;;;;;4.53;2.50;;;18.00;99.90;;;;;;5033847;28;20030;-51
2022/07/03 02:25:13;;;;;;;5.18;2.83;;;17.90;99.90;;;;;;5033674;28;20379;-53
2022/07/03 02:27:55;;;;;;;5.93;2.80;;;17.90;99.90;;;;;;5032871;28;20068;-53
2022/07/03 02:30:23;;;;;;;3.15;2.88;;;17.80;99.90;;;;;;5015433;28;20033;-53
2022/07/03 02:32:51;;;;;;;5.90;3.10;;;17.80;99.90;;;;;;5032513;28;20429;-49
2022/07/03 02:35:30;;;;;;;7.53;2.63;;;17.70;99.90;;;;;;5033354;28;20422;-52
2022/07/03 02:38:07;;;;;;;5.00;3.50;;;17.70;99.90;;;;;;5032500;28;20477;-53
2022/07/03 02:40:42;;;;;;;3.67;2.88;;;17.70;99.90;;;;;;5033349;28;20037;-55
2022/07/03 02:43:49;;;;;;;3.58;2.63;;;17.70;99.90;;;;;;5033330;28;20030;-54
2022/07/03 02:49:29;;;;;;;9.10;2.95;;;17.80;99.90;;;;;;5032065;28;19975;-57
2022/07/03 02:52:17;;;;;;;3.28;2.97;;;17.70;99.90;;;;;;5029879;28;20041;-53
2022/07/03 02:54:48;;;;;;;4.65;2.75;;;17.70;99.90;;;;;;5033173;28;20045;-57
2022/07/03 02:57:17;;;;;;;3.75;3.45;;;17.70;99.90;;;;;;5032088;28;20109;-47
2022/07/03 03:00:02;;;;;;;3.75;3.10;;;17.60;99.90;;;;;;5033469;28;20033;-54
2022/07/03 03:02:49;;;;;;;7.32;3.80;;;17.50;99.90;;;;;;5032921;28;20033;-53
2022/07/03 03:05:20;;;;;;;8.18;3.63;;;17.40;99.90;;;;;;5032742;28;20544;-56
2022/07/03 03:07:56;;;;;;;6.75;3.33;;;17.30;99.90;;;;;;5031839;28;20125;-54
2022/07/03 03:10:22;;;;;;;4.32;3.58;;;17.30;99.90;;;;;;5025575;28;20053;-54
2022/07/03 03:12:57;;;;;;;4.45;3.30;;;17.30;99.90;;;;;;5026781;28;20440;-51
2022/07/03 03:15:26;;;;;;;4.25;3.08;;;17.30;99.90;;;;;;5032539;28;20026;-55
2022/07/03 03:17:56;;;;;;;5.32;3.35;;;17.40;99.90;;;;;;5031633;28;20028;-50
2022/07/03 03:20:29;;;;;;;4.57;3.70;;;17.50;99.90;;;;;;5014834;28;20025;-55
2022/07/03 03:23:00;;;;;;;6.55;3.63;;;17.50;99.90;;;;;;5026391;28;20033;-47
2022/07/03 03:25:25;;;;;;;8.02;3.28;;;17.50;99.90;;;;;;5027009;28;20037;-55
2022/07/03 03:27:52;;;;;;;6.25;3.17;;;17.50;99.90;;;;;;5031424;28;20038;-57
2022/07/03 03:30:17;;;;;;;4.88;3.40;;;17.50;99.90;;;;;;5032412;28;20033;-55
2022/07/03 03:32:43;;;;;;;4.00;3.30;;;17.50;99.90;;;;;;5032346;28;20044;-55
2022/07/03 03:35:09;;;;;;;6.15;3.28;;;17.50;99.90;;;;;;5031148;28;20511;-51
2022/07/03 03:37:35;;;;;;;4.65;3.10;;;17.50;99.90;;;;;;5030619;28;20026;-57
2022/07/03 03:40:02;;;;;;;5.28;3.33;;;17.40;99.90;;;;;;5032113;28;20412;-56
2022/07/03 03:42:28;;;;;;;3.90;3.47;;;17.30;99.90;;;;;;5032334;28;20021;-53
2022/07/03 03:44:53;;;;;;;6.70;3.47;;;17.40;99.90;;;;;;5031939;28;20059;-50
2022/07/03 03:47:19;;;;;;;4.60;3.70;;;17.30;99.90;;;;;;5031033;28;20504;-51
2022/07/03 03:49:45;;;;;;;3.92;3.60;;;17.30;99.90;;;;;;5012566;28;20503;-54
2022/07/03 03:52:10;;;;;;;8.65;3.80;;;17.20;99.90;;;;;;5031576;28;20064;-47
2022/07/03 03:54:36;;;;;;;5.10;3.00;;;17.20;99.90;;;;;;5031736;28;20363;-53
2022/07/03 03:57:18;;;;;;;7.07;3.78;;;17.20;99.90;;;;;;5030990;28;20035;-50
2022/07/03 03:59:44;;;;;;;8.20;3.38;;;17.20;99.90;;;;;;5030977;28;20017;-50
2022/07/03 04:02:10;;;;;;;4.95;3.17;;;17.20;99.90;;;;;;5013503;28;20056;-53
2022/07/03 04:04:35;;;;;;;6.15;3.22;;;17.10;99.90;;;;;;5031096;28;20049;-52
2022/07/03 04:07:01;;;;;;;5.93;3.67;;;17.20;99.90;;;;;;5012333;28;20367;-50
2022/07/03 04:09:26;;;;;;;6.10;3.47;;;17.20;99.90;;;;;;5030444;28;20029;-53
2022/07/03 04:11:52;;;;;;;5.05;3.33;;;17.20;99.90;;;;;;5031695;28;20064;-49
2022/07/03 04:14:17;;;;;;;4.75;3.75;;;17.30;99.90;;;;;;5031494;28;20750;-51
2022/07/03 04:16:43;;;;;;;4.35;3.47;;;17.30;99.90;;;;;;5031410;28;20034;-45
2022/07/03 04:19:09;;;;;;;6.32;4.05;;;17.30;99.90;;;;;;5030900;28;20531;-55
2022/07/03 04:21:34;;;;;;;7.07;2.90;;;17.30;99.90;;;;;;5031475;28;20025;-54
2022/07/03 04:24:00;;;;;;;5.05;4.03;;;17.40;99.90;;;;;;5031069;28;20032;-54
2022/07/03 04:26:25;;;;;;;7.90;3.53;;;17.50;99.90;;;;;;5031892;28;20052;-51
2022/07/03 04:28:51;;;;;;;4.38;3.30;;;17.50;99.90;;;;;;5030427;28;20382;-53
2022/07/03 04:31:16;;;;;;;10.45;3.55;;;17.60;99.90;;;;;;5031183;28;20036;-51
2022/07/03 04:33:42;;;;;;;7.03;3.17;;;17.60;99.90;;;;;;5031259;28;20025;-51
2022/07/03 04:36:07;;;;;;;19.33;4.47;;;17.70;99.90;;;;;;5031359;28;20021;-49
2022/07/03 04:38:33;;;;;;;3.72;2.97;;;17.80;99.90;;;;;;5030562;28;20104;-52
2022/07/03 04:40:58;;;;;;;4.00;3.30;;;17.90;99.90;;;;;;5030965;28;20026;-52
2022/07/03 04:43:23;;;;;;;4.35;3.35;;;18.00;99.90;;;;;;5031411;28;20026;-54
2022/07/03 04:45:49;;;;;;;3.97;3.58;;;18.10;99.90;;;;;;5031091;28;20023;-47
2022/07/03 04:48:14;;;;;;;4.53;2.83;;;18.20;99.90;;;;;;5030571;28;20030;-50
2022/07/03 04:50:40;;;;;;;4.68;3.40;;;18.30;99.90;;;;;;5031190;28;20100;-51
2022/07/03 04:53:05;;;;;;;4.10;3.08;;;18.50;99.90;;;;;;5031145;28;20065;-55
2022/07/03 04:55:31;;;;;;;14.90;3.60;;;18.70;99.90;;;;;;5032197;28;20370;-51
2022/07/03 04:57:56;;;;;;;5.53;3.67;;;19.00;99.90;;;;;;5034351;28;20071;-48
2022/07/03 05:00:22;;;;;;;5.15;3.80;;;19.50;99.90;;;;;;5034003;28;20128;-56
2022/07/03 05:02:47;;;;;;;4.28;3.35;;;20.00;99.90;;;;;;5035095;28;20074;-53
2022/07/03 05:05:13;;;;;;;3.72;2.95;;;20.70;99.90;;;;;;5034519;28;20497;-52
2022/07/03 05:07:38;;;;;;;5.28;3.05;;;21.80;99.90;;;;;;5034058;28;20056;-54
2022/07/03 05:10:04;;;;;;;3.53;3.10;;;23.00;98.60;;;;;;5034674;28;20456;-55
2022/07/03 05:12:30;;;;;;;4.78;2.97;;;24.20;96.80;;;;;;5034819;28;20555;-54
2022/07/03 05:14:55;;;;;;;5.10;2.67;;;25.00;95.30;;;;;;5017301;28;20021;-49
2022/07/03 05:17:21;;;;;;;3.20;2.88;;;25.90;93.20;;;;;;5016150;28;20160;-52
2022/07/03 05:19:47;;;;;;;5.20;2.70;;;26.40;92.30;;;;;;5035236;28;20394;-53
2022/07/03 05:22:13;;;;;;;3.20;2.90;;;26.80;91.70;;;;;;5034800;28;20023;-46
2022/07/03 05:24:38;;;;;;;7.75;2.90;;;27.40;90.70;;;;;;5034455;28;20068;-55
2022/07/03 05:27:04;;;;;;;4.07;2.58;;;27.70;89.60;;;;;;5015851;28;20369;-54
2022/07/03 05:29:30;;;;;;;5.35;2.60;;;28.00;87.70;;;;;;5034677;28;20029;-54
2022/07/03 05:31:55;;;;;;;2.72;2.47;;;28.50;84.20;;;;;;5034545;28;20393;-54
2022/07/03 05:34:21;;;;;;;3.92;2.60;;;28.60;84.30;;;;;;5034324;28;20021;-51
2022/07/03 05:36:46;;;;;;;11.13;2.65;;;29.00;83.90;;;;;;5033626;28;20108;-53
2022/07/03 05:41:56;;;;;;;4.63;2.40;;;29.10;81.90;;;;;;5034386;28;20079;-55
2022/07/03 05:44:21;;;;;;;4.90;2.13;;;28.90;82.00;;;;;;5034280;28;20057;-52
2022/07/03 05:46:47;;;;;;;2.15;1.95;;;29.20;80.80;;;;;;5033621;28;20049;-53
2022/07/03 05:49:12;;;;;;;3.55;2.85;;;29.30;80.40;;;;;;5033855;28;20025;-52
2022/07/03 05:51:38;;;;;;;2.53;2.03;;;29.50;79.80;;;;;;5033990;28;20025;-53
2022/07/03 05:54:03;;;;;;;2.42;1.90;;;29.60;78.70;;;;;;5034323;28;20053;-51
2022/07/03 05:56:29;;;;;;;2.90;2.60;;;29.70;79.00;;;;;;5015694;28;20017;-47
2022/07/03 05:58:54;;;;;;;2.70;1.95;;;30.00;78.20;;;;;;5031614;28;20029;-51
2022/07/03 06:01:20;;;;;;;4.28;2.47;;;30.20;78.10;;;;;;5034059;28;20111;-52
2022/07/03 06:03:45;;;;;;;3.60;1.95;;;30.30;77.20;;;;;;5033621;28;20040;-52
2022/07/03 06:06:11;;;;;;;2.88;2.13;;;30.60;75.90;;;;;;5015416;28;20417;-48
2022/07/03 06:08:36;;;;;;;1.70;1.60;;;30.80;75.20;;;;;;5032566;28;20103;-46
2022/07/03 06:11:02;;;;;;;2.28;2.05;;;31.10;74.60;;;;;;5033391;28;20099;-51
2022/07/03 06:13:27;;;;;;;6.40;2.28;;;31.00;73.60;;;;;;5033620;28;20036;-51
2022/07/03 06:15:53;;;;;;;3.65;1.90;;;31.20;72.90;;;;;;5033612;28;20029;-52
2022/07/03 06:18:18;;;;;;;1.90;1.70;;;31.40;72.30;;;;;;5032803;28;20436;-49
2022/07/03 06:20:44;;;;;;;2.10;2.00;;;31.50;72.40;;;;;;5033532;28;20025;-54
2022/07/03 06:23:09;;;;;;;5.25;1.90;;;31.70;71.70;;;;;;5033600;28;20488;-53
2022/07/03 06:25:35;;;;;;;3.20;2.20;;;31.70;71.80;;;;;;5033419;28;20033;-54
2022/07/03 06:28:00;;;;;;;2.30;1.55;;;31.90;71.90;;;;;;5032553;28;20037;-53
2022/07/03 06:30:26;;;;;;;1.95;1.45;;;32.20;71.20;;;;;;5033499;28;20033;-50
2022/07/03 06:32:51;;;;;;;3.15;1.35;;;32.40;71.30;;;;;;5015458;28;20447;-51
2022/07/03 06:35:17;;;;;;;4.63;1.70;;;32.70;70.50;;;;;;5033122;28;20036;-50
2022/07/03 06:37:42;;;;;;;5.55;1.60;;;32.90;70.20;;;;;;5032519;28;20026;-50
2022/07/03 06:40:09;;;;;;;1.85;1.50;;;33.10;69.40;;;;;;5033294;28;20203;-51
2022/07/03 06:42:34;;;;;;;9.27;1.48;;;33.40;67.60;;;;;;5033334;28;20029;-49
2022/07/03 06:44:59;;;;;;;1.48;1.30;;;32.90;67.40;;;;;;5033158;28;20510;-53
2022/07/03 06:47:25;;;;;;;3.20;1.35;;;32.40;68.80;;;;;;5032715;28;20029;-52
2022/07/03 06:49:50;;;;;;;3.08;1.63;;;32.70;69.20;;;;;;5032995;28;20051;-55
2022/07/03 06:52:16;;;;;;;1.50;1.40;;;32.90;68.70;;;;;;5032976;28;20194;-53
2022/07/03 06:54:43;;;;;;;4.63;1.50;;;32.90;68.20;;;;;;5029396;28;20045;-53
2022/07/03 06:57:10;;;;;;;2.30;1.50;;;32.90;68.40;;;;;;5012390;28;20022;-52
2022/07/03 06:59:35;;;;;;;4.85;1.33;;;33.00;67.70;;;;;;5012137;28;20401;-51
2022/07/03 07:02:01;;;;;;;1.95;1.23;;;33.10;68.10;;;;;;5014410;28;20022;-47
2022/07/03 07:04:26;;;;;;;1.38;1.27;;;33.30;67.60;;;;;;5029207;28;20083;-53
2022/07/03 07:06:52;;;;;;;2.72;1.05;;;33.30;65.80;;;;;;5030450;28;20105;-51
2022/07/03 07:09:17;;;;;;;5.53;1.33;;;33.40;66.80;;;;;;5030854;28;20120;-55
2022/07/03 07:11:43;;;;;;;1.73;1.17;;;33.60;66.10;;;;;;5032426;28;20468;-51
2022/07/03 07:14:08;;;;;;;1.35;1.25;;;34.10;65.80;;;;;;5017253;28;20026;-52
2022/07/03 07:16:34;;;;;;;2.00;1.10;;;34.10;65.30;;;;;;5016553;28;20036;-57
2022/07/03 07:19:00;;;;;;;7.47;2.13;;;34.00;65.40;;;;;;5030932;28;20029;-56
2022/07/03 07:21:25;;;;;;;3.45;1.40;;;34.30;64.90;;;;;;5031912;28;20029;-56
2022/07/03 07:23:51;;;;;;;0.98;0.90;;;34.60;65.00;;;;;;5028856;28;20036;-54
2022/07/03 07:26:19;;;;;;;1.15;1.05;;;35.20;66.90;;;;;;5031619;28;20037;-53
2022/07/03 07:28:45;;;;;;;4.40;1.17;;;35.40;62.90;;;;;;5027673;28;20021;-56
2022/07/03 07:31:11;;;;;;;1.90;1.10;;;35.60;62.30;;;;;;5031719;28;20036;-57
2022/07/03 07:33:36;;;;;;;1.10;1.00;;;35.60;62.90;;;;;;5014761;28;20044;-56
2022/07/03 07:36:02;;;;;;;1.27;1.00;;;35.90;62.10;;;;;;5016886;28;20481;-49
2022/07/03 07:38:28;;;;;;;2.35;1.27;;;36.20;61.10;;;;;;5024985;28;20022;-54
2022/07/03 07:40:53;;;;;;;1.02;0.90;;;36.50;60.80;;;;;;5012696;28;20080;-54
2022/07/03 07:43:19;;;;;;;1.10;0.65;;;36.10;60.90;;;;;;5012437;28;20026;-53
2022/07/03 07:45:44;;;;;;;11.90;2.38;;;36.10;61.10;;;;;;5011406;28;20036;-52
2022/07/03 07:48:10;;;;;;;2.40;0.98;;;36.50;59.90;;;;;;5027389;28;20026;-55
2022/07/03 07:50:35;;;;;;;3.40;0.93;;;36.70;60.10;;;;;;5013797;28;20068;-53
2022/07/03 07:53:01;;;;;;;3.83;0.85;;;36.60;58.80;;;;;;5031901;28;20040;-53
2022/07/03 07:55:27;;;;;;;4.25;1.15;;;36.50;58.00;;;;;;5031821;28;20100;-54
2022/07/03 07:57:52;;;;;;;6.40;1.10;;;36.40;59.30;;;;;;5031557;28;20482;-55
2022/07/03 08:00:19;;;;;;;3.42;1.10;;;36.40;59.60;;;;;;5029952;28;20061;-51
2022/07/03 08:05:36;;;;;;;17.20;9.75;;;37.60;57.60;;;;;;5031794;28;20475;-50
2022/07/03 08:08:12;;;;;;;10.95;1.17;;;38.30;56.00;;;;;;5031242;28;20113;-52
2022/07/03 08:10:43;;;;;;;5.63;1.02;;;37.70;56.90;;;;;;5031577;28;20025;-56
2022/07/03 08:13:10;;;;;;;4.68;0.90;;;37.50;56.80;;;;;;5032980;28;20075;-52
2022/07/03 08:15:36;;;;;;;3.38;1.20;;;37.50;56.50;;;;;;5031312;28;20025;-53
2022/07/03 08:18:02;;;;;;;5.95;0.90;;;37.50;56.90;;;;;;5031802;28;20405;-52
2022/07/03 08:20:28;;;;;;;4.03;1.15;;;37.20;57.60;;;;;;5032019;28;20018;-51
2022/07/03 08:22:54;;;;;;;1.25;1.00;;;36.80;57.20;;;;;;5031294;28;20041;-51
2022/07/03 08:25:20;;;;;;;1.50;1.40;;;36.20;57.90;;;;;;5032051;28;20022;-52
2022/07/03 08:27:45;;;;;;;10.85;5.78;;;35.30;59.50;;;;;;5013091;28;20045;-53
2022/07/03 08:30:14;;;;;;;9.85;3.92;;;34.80;60.50;;;;;;5030925;28;20030;-52
2022/07/03 08:32:40;;;;;;;4.03;1.35;;;34.20;60.70;;;;;;5031275;28;20057;-56
2022/07/03 08:35:06;;;;;;;4.88;2.60;;;33.70;61.30;;;;;;5029921;28;20029;-48
2022/07/03 08:37:31;;;;;;;2.78;1.50;;;33.20;62.30;;;;;;5030596;28;20028;-53
2022/07/03 08:39:57;;;;;;;1.60;1.50;;;32.90;62.70;;;;;;5031678;28;20389;-52
2022/07/03 08:42:25;;;;;;;2.92;1.90;;;32.60;63.30;;;;;;5031283;28;20034;-53
2022/07/03 08:44:51;;;;;;;8.32;5.10;;;32.10;63.60;;;;;;5031394;28;20108;-54
2022/07/03 08:47:17;;;;;;;4.45;2.05;;;31.70;64.20;;;;;;5030623;28;20051;-57
2022/07/03 08:49:44;;;;;;;2.88;2.47;;;31.50;64.90;;;;;;5031688;28;20404;-55
2022/07/03 08:52:10;;;;;;;6.10;1.45;;;31.40;65.40;;;;;;5031262;28;20060;-54
2022/07/03 08:54:37;;;;;;;3.70;1.27;;;31.30;66.40;;;;;;5031313;28;20017;-52
2022/07/03 08:57:03;;;;;;;2.40;2.05;;;31.20;65.30;;;;;;5030317;28;20021;-50
2022/07/03 08:59:39;;;;;;;1.40;0.98;;;31.20;66.30;;;;;;5031345;28;20390;-53
2022/07/03 09:02:06;;;;;;;3.30;1.85;;;31.10;65.20;;;;;;5031357;28;20116;-51
2022/07/03 09:04:32;;;;;;;1.70;1.08;;;31.10;65.40;;;;;;5031059;28;20083;-56
2022/07/03 09:07:00;;;;;;;0.90;0.90;;;31.10;66.70;;;;;;5030193;28;20374;-54
2022/07/03 09:09:26;;;;;;;4.18;1.00;;;31.10;64.70;;;;;;5030943;28;20048;-54
2022/07/03 09:11:52;;;;;;;0.93;0.90;;;30.70;64.90;;;;;;5013400;28;20028;-55
2022/07/03 09:14:18;;;;;;;3.90;1.08;;;30.40;65.70;;;;;;5013690;28;20385;-53
2022/07/03 09:16:44;;;;;;;1.08;1.08;;;30.30;66.20;;;;;;5013116;28;20025;-54
2022/07/03 09:19:09;;;;;;;1.73;0.88;;;30.20;66.60;;;;;;5030636;28;20026;-54
2022/07/03 09:21:37;;;;;;;4.75;1.02;;;30.20;66.10;;;;;;5031103;28;20096;-55
2022/07/03 09:24:07;;;;;;;1.30;1.00;;;30.40;65.70;;;;;;5031253;28;20029;-54
2022/07/03 09:26:33;;;;;;;2.15;1.15;;;30.50;65.90;;;;;;5030783;28;20364;-53
2022/07/03 09:28:59;;;;;;;5.07;1.20;;;30.30;65.40;;;;;;5030342;28;20032;-56
2022/07/03 09:31:26;;;;;;;1.95;0.80;;;30.30;67.10;;;;;;5031016;28;20029;-56
2022/07/03 09:34:00;;;;;;;4.55;1.00;;;30.20;66.20;;;;;;5030914;28;20083;-56
2022/07/03 09:36:45;;;;;;;2.70;0.75;;;30.10;66.10;;;;;;5029992;28;20120;-56
2022/07/03 09:39:31;;;;;;;3.50;1.10;;;30.10;65.90;;;;;;5030569;28;20393;-55
2022/07/03 09:42:05;;;;;;;1.08;0.60;;;30.20;65.80;;;;;;5033001;28;20037;-56
2022/07/03 09:44:42;;;;;;;1.27;0.90;;;30.20;66.40;;;;;;5034478;28;20026;-55
2022/07/03 09:47:24;;;;;;;1.30;0.70;;;30.20;66.60;;;;;;5033448;28;20022;-52
2022/07/03 09:49:57;;;;;;;0.98;0.98;;;30.20;65.60;;;;;;5016672;28;20025;-55
2022/07/03 09:52:37;;;;;;;1.30;1.20;;;30.20;65.90;;;;;;5034360;28;20125;-56
2022/07/03 09:55:08;;;;;;;1.02;0.80;;;30.20;63.90;;;;;;5034512;28;20170;-56
2022/07/03 09:57:40;;;;;;;3.92;0.60;;;30.00;65.30;;;;;;5033435;28;20026;-56
2022/07/03 10:00:13;;;;;;;0.77;0.47;;;29.80;65.20;;;;;;5034302;28;20021;-52
2022/07/03 10:03:01;;;;;;;2.15;0.70;;;29.60;64.90;;;;;;5016509;28;20079;-51
2022/07/03 10:05:28;;;;;;;4.53;0.90;;;29.50;65.60;;;;;;5016269;28;20029;-55
2022/07/03 10:07:59;;;;;;;1.25;0.82;;;29.30;67.10;;;;;;5033363;28;20276;-56
2022/07/03 10:10:27;;;;;;;0.57;0.57;;;29.40;66.70;;;;;;5034218;28;20057;-51
2022/07/03 10:12:54;;;;;;;2.10;0.68;;;29.50;66.90;;;;;;5033935;28;20104;-57
2022/07/03 10:15:20;;;;;;;5.05;1.67;;;29.50;66.40;;;;;;5034027;28;20032;-53
2022/07/03 10:17:51;;;;;;;7.35;1.08;;;29.50;65.20;;;;;;5033040;28;20366;-55
2022/07/03 10:20:46;;;;;;;1.25;0.80;;;29.40;64.80;;;;;;5033947;28;20022;-54
2022/07/03 10:23:13;;;;;;;1.20;0.60;;;29.30;65.70;;;;;;5022948;28;20037;-56
2022/07/03 10:25:43;;;;;;;2.92;0.77;;;29.10;66.10;;;;;;5015873;28;20068;-45
2022/07/03 10:28:11;;;;;;;1.08;0.70;;;29.20;65.70;;;;;;5032777;28;20473;-53
2022/07/03 10:30:38;;;;;;;1.80;1.67;;;29.20;65.60;;;;;;5033647;28;20038;-56
2022/07/03 10:33:03;;;;;;;1.13;0.75;;;29.30;67.30;;;;;;5033459;28;20049;-56
2022/07/03 10:35:39;;;;;;;3.47;0.70;;;29.40;67.80;;;;;;5031765;28;20371;-53
2022/07/03 10:38:36;;;;;;;1.00;0.95;;;29.50;66.70;;;;;;5032733;28;20485;-54
2022/07/03 10:46:57;;;;;;;2.65;0.90;;;28.90;66.40;;;;;;5032785;28;20083;-52
2022/07/03 10:49:23;;;;;;;1.02;0.93;;;28.80;67.00;;;;;;5033224;28;20513;-53
2022/07/03 10:51:52;;;;;;;1.48;0.85;;;28.80;68.30;;;;;;5033477;28;20029;-55
2022/07/03 10:54:28;;;;;;;0.82;0.70;;;28.90;66.50;;;;;;5032721;28;20025;-52
2022/07/03 10:57:02;;;;;;;3.33;0.77;;;28.70;67.50;;;;;;5032164;28;20478;-51
2022/07/03 10:59:40;;;;;;;0.77;0.70;;;28.60;66.90;;;;;;5033186;28;20489;-51
2022/07/03 11:02:23;;;;;;;2.40;1.05;;;28.70;67.50;;;;;;5033125;28;20027;-55
2022/07/03 11:05:01;;;;;;;1.20;0.75;;;28.60;67.50;;;;;;5033033;28;20037;-54
2022/07/03 11:07:27;;;;;;;3.67;1.00;;;28.50;67.60;;;;;;5031921;28;20125;-55
2022/07/03 11:10:12;;;;;;;0.93;0.80;;;28.50;68.90;;;;;;5032915;28;20485;-56
2022/07/03 11:12:56;;;;;;;1.48;0.63;;;28.50;69.40;;;;;;5015108;28;20033;-55
2022/07/03 11:15:31;;;;;;;1.25;0.82;;;28.60;69.10;;;;;;5032893;28;20405;-56
2022/07/03 11:18:25;;;;;;;0.80;0.68;;;28.70;64.70;;;;;;5032444;28;20081;-48
2022/07/03 11:20:51;;;;;;;0.82;0.63;;;28.80;65.00;;;;;;5002906;28;20033;-47
2022/07/03 11:23:19;;;;;;;2.50;0.60;;;28.80;64.40;;;;;;5032311;28;20393;-55
2022/07/03 11:25:45;;;;;;;1.65;0.70;;;28.80;63.20;;;;;;5032435;28;20032;-55
2022/07/03 11:28:32;;;;;;;1.98;0.68;;;28.80;63.60;;;;;;5031455;28;20065;-54
2022/07/03 11:31:10;;;;;;;1.92;0.80;;;28.70;62.70;;;;;;5032338;28;20413;-49
2022/07/03 11:33:42;;;;;;;1.40;0.60;;;28.60;62.40;;;;;;5032258;28;20030;-47
2022/07/03 11:36:14;;;;;;;2.60;0.50;;;28.50;63.10;;;;;;5013016;28;20021;-56
2022/07/03 11:38:40;;;;;;;3.40;0.77;;;28.50;63.90;;;;;;5013667;28;20060;-56
2022/07/03 11:41:08;;;;;;;2.65;0.90;;;28.50;63.00;;;;;;5032711;28;20599;-53
2022/07/03 11:43:34;;;;;;;1.98;0.98;;;28.60;63.10;;;;;;5032631;28;20072;-55
2022/07/03 11:46:01;;;;;;;3.50;1.33;;;28.70;61.80;;;;;;5038873;28;20029;-56
2022/07/03 11:48:27;;;;;;;0.75;0.57;;;28.70;61.90;;;;;;5034030;28;20041;-54
2022/07/03 11:51:02;;;;;;;4.03;0.88;;;28.80;60.70;;;;;;5032390;28;20140;-55
2022/07/03 11:53:30;;;;;;;2.85;0.65;;;28.80;62.20;;;;;;5032108;28;20025;-57
2022/07/03 11:55:58;;;;;;;0.82;0.60;;;28.80;62.00;;;;;;5032074;28;20021;-57
2022/07/03 11:58:25;;;;;;;0.55;0.50;;;28.80;61.50;;;;;;5031164;28;20087;-53
2022/07/03 12:00:53;;;;;;;3.85;0.68;;;28.80;61.90;;;;;;5032321;28;20033;-54
2022/07/03 12:03:24;;;;;;;1.55;0.50;;;28.80;62.30;;;;;;5031889;28;20057;-53
2022/07/03 12:05:59;;;;;;;0.77;0.35;;;28.90;61.80;;;;;;5030858;28;20021;-56
2022/07/03 12:08:33;;;;;;;3.78;0.93;;;28.90;60.20;;;;;;5030869;28;20037;-56
2022/07/03 12:11:07;;;;;;;4.50;1.43;;;28.90;60.00;;;;;;5031939;28;20030;-55
2022/07/03 12:13:33;;;;;;;1.58;0.80;;;28.90;60.50;;;;;;5031796;28;20056;-54
2022/07/03 12:16:15;;;;;;;0.40;0.35;;;28.80;62.20;;;;;;5031707;28;20026;-49
2022/07/03 12:18:52;;;;;;;3.25;0.47;;;28.70;60.90;;;;;;5031529;28;20079;-55
2022/07/03 12:21:19;;;;;;;0.47;0.40;;;28.70;60.20;;;;;;5032026;28;20026;-55
2022/07/03 12:23:48;;;;;;;2.50;0.60;;;28.60;60.60;;;;;;5031880;28;20036;-55
2022/07/03 12:26:25;;;;;;;3.20;0.60;;;28.70;59.30;;;;;;5032177;28;20021;-55
2022/07/03 12:28:51;;;;;;;0.85;0.60;;;28.80;60.30;;;;;;5031350;28;20060;-51
2022/07/03 12:31:16;;;;;;;7.38;0.73;;;28.90;59.70;;;;;;5031897;28;20064;-54
2022/07/03 12:33:42;;;;;;;1.13;0.60;;;28.90;59.70;;;;;;5032043;28;20057;-53
2022/07/03 12:36:09;;;;;;;0.30;0.30;;;28.90;59.60;;;;;;5030472;28;20456;-55
2022/07/03 12:38:37;;;;;;;1.95;0.55;;;28.90;60.70;;;;;;5030706;28;20030;-54
2022/07/03 12:41:05;;;;;;;1.30;0.70;;;28.90;60.00;;;;;;5031572;28;20022;-54
2022/07/03 12:43:40;;;;;;;0.60;0.60;;;28.90;61.80;;;;;;5013849;28;20029;-55
2022/07/03 12:46:26;;;;;;;0.98;0.55;;;29.10;61.00;;;;;;5031397;28;20026;-53
2022/07/03 12:48:56;;;;;;;1.42;0.60;;;29.20;60.70;;;;;;5030572;28;20084;-51
2022/07/03 12:51:40;;;;;;;1.85;0.57;;;29.20;60.30;;;;;;5013752;28;20079;-52
2022/07/03 12:54:11;;;;;;;1.33;0.60;;;29.40;60.30;;;;;;5031129;28;20032;-54
2022/07/03 12:56:37;;;;;;;1.73;0.75;;;29.30;60.00;;;;;;5031168;28;20389;-54
2022/07/03 12:59:17;;;;;;;1.58;0.70;;;29.30;60.50;;;;;;5030476;28;20018;-56
2022/07/03 13:01:44;;;;;;;0.75;0.60;;;29.30;60.60;;;;;;5031306;28;20533;-54
2022/07/03 13:04:17;;;;;;;2.10;0.60;;;29.20;61.70;;;;;;5031300;28;20482;-58
2022/07/03 13:06:45;;;;;;;0.70;0.70;;;29.20;59.80;;;;;;5031140;28;20036;-54
2022/07/03 13:09:12;;;;;;;2.08;0.57;;;29.20;61.50;;;;;;5030773;28;20050;-54
2022/07/03 13:11:40;;;;;;;1.40;0.70;;;29.20;60.80;;;;;;5031137;28;20027;-50
2022/07/03 13:14:12;;;;;;;1.88;0.98;;;29.30;61.20;;;;;;5052336;22;20062;-52